Time;durP1;ratioP1;P1;durP2;ratioP2;P2;SDS_P1;SDS_P2;PMS_P1;PMS_P2;Temp;Humidity;BMP_temperature;BMP_pressure;BME280_temperature;BME280_humidity;BME280_pressure;Samples;Min_cycle;Max_cycle;Signal;HPM_P1;HPM_P2
2022/10/26 00:00:49;;;;;;;3.22;1.88;;;11.70;97.10;;;;;;5092161;28;20268;-64
2022/10/26 00:03:18;;;;;;;4.35;2.55;;;11.60;97.20;;;;;;5091917;28;20733;-64
2022/10/26 00:05:45;;;;;;;3.75;2.25;;;11.60;97.80;;;;;;5095493;28;20250;-64
2022/10/26 00:08:13;;;;;;;4.40;3.10;;;11.50;98.30;;;;;;5095247;28;20238;-64
2022/10/26 00:10:40;;;;;;;3.95;2.45;;;11.40;98.80;;;;;;5095516;28;20246;-64
2022/10/26 00:13:10;;;;;;;3.20;2.53;;;11.40;99.00;;;;;;5095401;28;20220;-64
2022/10/26 00:15:40;;;;;;;4.38;2.90;;;11.30;99.60;;;;;;5095042;28;20189;-68
2022/10/26 00:18:09;;;;;;;4.25;2.05;;;11.20;99.90;;;;;;5095161;28;20232;-64
2022/10/26 00:20:36;;;;;;;7.57;3.50;;;11.30;99.90;;;;;;5095533;28;20230;-64
2022/10/26 00:23:03;;;;;;;4.47;3.08;;;11.40;99.90;;;;;;5095404;28;20216;-64
2022/10/26 00:25:30;;;;;;;9.43;3.35;;;11.50;99.70;;;;;;5095241;28;20239;-64
2022/10/26 00:27:57;;;;;;;3.33;2.63;;;11.60;99.60;;;;;;5095594;28;20605;-64
2022/10/26 00:30:24;;;;;;;3.50;2.58;;;11.70;99.40;;;;;;5095555;28;20243;-64
2022/10/26 00:32:51;;;;;;;3.65;2.97;;;11.80;99.30;;;;;;5094919;28;20225;-64
2022/10/26 00:35:19;;;;;;;4.70;2.70;;;11.80;99.00;;;;;;5094990;28;20280;-64
2022/10/26 00:37:46;;;;;;;3.35;2.60;;;11.80;98.90;;;;;;5095230;28;20189;-64
2022/10/26 00:40:13;;;;;;;3.15;2.55;;;11.90;98.70;;;;;;5095158;28;20229;-64
2022/10/26 00:42:40;;;;;;;5.65;3.03;;;12.00;98.40;;;;;;5095135;28;20308;-64
2022/10/26 00:45:20;;;;;;;3.00;2.45;;;11.90;98.10;;;;;;5095145;28;20224;-64
2022/10/26 00:47:50;;;;;;;3.72;2.40;;;12.00;98.20;;;;;;5094623;28;20195;-64
2022/10/26 00:50:21;;;;;;;5.35;2.30;;;12.00;98.10;;;;;;5094824;28;20228;-63
2022/10/26 00:52:49;;;;;;;3.38;2.00;;;12.00;98.00;;;;;;5095080;28;20242;-64
2022/10/26 00:55:20;;;;;;;3.22;2.03;;;12.10;98.20;;;;;;5095169;28;20220;-64
2022/10/26 00:57:48;;;;;;;3.13;2.00;;;12.10;98.10;;;;;;5094527;28;20199;-64
2022/10/26 01:00:15;;;;;;;3.40;2.10;;;12.10;98.20;;;;;;5094832;28;20228;-64
2022/10/26 01:02:45;;;;;;;4.85;2.40;;;12.10;98.00;;;;;;5094243;28;20682;-64
2022/10/26 01:05:15;;;;;;;2.80;1.80;;;12.10;98.20;;;;;;5094600;28;20197;-64
2022/10/26 01:07:44;;;;;;;5.70;2.25;;;12.10;98.10;;;;;;5094787;28;20189;-65
2022/10/26 01:10:12;;;;;;;2.85;2.05;;;12.10;98.20;;;;;;5094596;28;20272;-64
2022/10/26 01:12:39;;;;;;;8.07;2.10;;;12.10;98.30;;;;;;5094463;28;20185;-64
2022/10/26 01:15:08;;;;;;;4.22;1.90;;;12.10;98.10;;;;;;5093640;28;20596;-65
2022/10/26 01:17:52;;;;;;;3.47;2.00;;;12.10;98.20;;;;;;5094197;28;20678;-64
2022/10/26 01:20:56;;;;;;;3.30;2.70;;;12.10;98.30;;;;;;5054172;28;20653;-64
2022/10/26 01:23:34;;;;;;;5.05;2.90;;;12.10;98.70;;;;;;5054172;28;20214;-64
2022/10/26 01:26:30;;;;;;;8.07;3.20;;;12.00;98.80;;;;;;5054227;28;20225;-64
2022/10/26 01:29:24;;;;;;;5.82;2.63;;;12.10;98.90;;;;;;5054019;28;20191;-64
2022/10/26 01:31:59;;;;;;;3.33;2.40;;;12.10;98.80;;;;;;5054114;28;20208;-64
2022/10/26 01:34:33;;;;;;;3.80;3.15;;;12.20;98.70;;;;;;5054091;28;20193;-64
2022/10/26 01:37:06;;;;;;;3.33;2.65;;;12.10;98.40;;;;;;5054080;28;20221;-64
2022/10/26 01:39:39;;;;;;;3.30;2.25;;;12.10;98.60;;;;;;5054158;28;20222;-64
2022/10/26 01:42:09;;;;;;;5.68;2.40;;;12.00;98.80;;;;;;5053762;28;20669;-64
2022/10/26 01:44:41;;;;;;;3.10;2.30;;;11.90;99.10;;;;;;5053944;28;20335;-64
2022/10/26 01:47:12;;;;;;;4.80;2.60;;;12.00;99.30;;;;;;5053456;28;20577;-64
2022/10/26 01:49:45;;;;;;;7.40;2.58;;;11.90;99.30;;;;;;5053370;28;20664;-64
2022/10/26 01:52:12;;;;;;;4.30;2.15;;;11.90;99.50;;;;;;5053336;28;20190;-64
2022/10/26 01:54:39;;;;;;;3.67;1.90;;;12.00;99.50;;;;;;5053216;28;20552;-64
2022/10/26 01:57:10;;;;;;;3.30;2.00;;;11.90;99.80;;;;;;5053313;28;20582;-64
2022/10/26 02:00:02;;;;;;;2.90;2.33;;;11.90;99.90;;;;;;5053036;28;20726;-64
2022/10/26 02:03:00;;;;;;;5.07;1.88;;;11.90;99.90;;;;;;5053519;28;20607;-64
2022/10/26 02:06:02;;;;;;;4.57;2.08;;;11.90;99.90;;;;;;5053514;28;20280;-64
2022/10/26 02:08:54;;;;;;;10.00;2.05;;;11.90;99.90;;;;;;5031191;28;20244;-64
2022/10/26 02:11:31;;;;;;;3.10;1.73;;;11.90;99.90;;;;;;5053031;28;20197;-64
2022/10/26 02:14:08;;;;;;;2.50;1.73;;;11.80;99.90;;;;;;5052979;28;20232;-64
2022/10/26 02:16:41;;;;;;;3.25;1.55;;;11.70;99.90;;;;;;5052716;28;20628;-64
2022/10/26 02:19:19;;;;;;;4.53;1.88;;;11.70;99.90;;;;;;5075722;28;20754;-65
2022/10/26 02:21:53;;;;;;;2.80;2.00;;;11.90;99.90;;;;;;5093368;28;20286;-64
2022/10/26 02:24:22;;;;;;;4.65;1.85;;;11.90;99.90;;;;;;5093097;28;20789;-64
2022/10/26 02:26:50;;;;;;;2.38;1.40;;;11.90;99.90;;;;;;5093180;28;20719;-64
2022/10/26 02:29:20;;;;;;;4.25;2.58;;;11.90;99.90;;;;;;5092961;28;20670;-63
2022/10/26 02:31:49;;;;;;;3.58;2.05;;;12.00;99.90;;;;;;5093198;28;20228;-64
2022/10/26 02:34:24;;;;;;;5.65;2.53;;;12.10;99.90;;;;;;5093068;28;20651;-64
2022/10/26 02:36:53;;;;;;;2.75;1.73;;;12.00;99.90;;;;;;5093153;28;20193;-63
2022/10/26 02:39:21;;;;;;;4.63;1.77;;;12.00;99.90;;;;;;5092850;28;20228;-64
2022/10/26 02:41:50;;;;;;;4.25;1.67;;;12.00;99.90;;;;;;5092572;28;20215;-64
2022/10/26 02:44:23;;;;;;;2.25;1.45;;;12.10;99.90;;;;;;5093019;28;20317;-64
2022/10/26 02:46:51;;;;;;;3.42;1.60;;;12.10;99.90;;;;;;5093202;28;20224;-64
2022/10/26 02:49:21;;;;;;;3.10;1.88;;;12.20;99.90;;;;;;5092698;28;20235;-64
2022/10/26 02:51:52;;;;;;;3.08;1.95;;;12.20;99.90;;;;;;5092991;28;20193;-64
2022/10/26 02:54:26;;;;;;;5.53;2.15;;;12.20;99.90;;;;;;5092573;28;20229;-64
2022/10/26 02:56:57;;;;;;;2.75;1.48;;;12.20;99.90;;;;;;5093156;28;20224;-64
2022/10/26 02:59:28;;;;;;;3.60;2.40;;;12.30;99.90;;;;;;5092710;28;20302;-64
2022/10/26 03:01:56;;;;;;;5.05;2.15;;;12.40;99.90;;;;;;5092457;28;20228;-64
2022/10/26 03:04:30;;;;;;;2.75;2.00;;;12.50;99.90;;;;;;5092842;28;20260;-64
2022/10/26 03:06:57;;;;;;;2.93;2.03;;;12.50;99.90;;;;;;5092643;28;20220;-64
2022/10/26 03:09:25;;;;;;;7.93;1.85;;;12.60;99.90;;;;;;5092478;28;20524;-64
2022/10/26 03:11:52;;;;;;;5.47;1.80;;;12.60;99.90;;;;;;5092514;28;20248;-64
2022/10/26 03:14:19;;;;;;;5.88;3.47;;;12.70;99.90;;;;;;5092657;28;20228;-64
2022/10/26 03:16:46;;;;;;;4.57;2.67;;;12.70;99.90;;;;;;5092728;28;20225;-64
2022/10/26 03:19:13;;;;;;;4.17;3.00;;;12.80;99.90;;;;;;5092340;28;20546;-64
2022/10/26 03:21:42;;;;;;;4.05;2.90;;;12.80;99.90;;;;;;5092373;28;20951;-64
2022/10/26 03:24:09;;;;;;;8.23;2.37;;;12.90;99.90;;;;;;5092402;28;20227;-64
2022/10/26 03:26:36;;;;;;;4.25;2.15;;;12.90;99.90;;;;;;5092806;28;20435;-65
2022/10/26 03:29:03;;;;;;;5.73;1.93;;;12.90;99.90;;;;;;5092775;28;20587;-64
2022/10/26 03:31:31;;;;;;;3.67;1.70;;;12.90;99.90;;;;;;5092378;28;20435;-64
2022/10/26 03:33:58;;;;;;;2.97;2.00;;;12.90;99.90;;;;;;5092162;28;20474;-64
2022/10/26 03:36:25;;;;;;;2.90;2.17;;;12.90;99.90;;;;;;5092283;28;20478;-64
2022/10/26 03:38:53;;;;;;;3.30;2.10;;;12.90;99.90;;;;;;5093763;28;20703;-64
2022/10/26 03:41:20;;;;;;;5.90;3.55;;;12.90;99.90;;;;;;5096388;28;20482;-64
2022/10/26 03:43:48;;;;;;;7.15;3.88;;;12.90;99.90;;;;;;5096378;28;20213;-64
2022/10/26 03:46:15;;;;;;;6.27;3.30;;;12.90;99.90;;;;;;5096180;28;20250;-64
2022/10/26 03:48:44;;;;;;;5.05;4.00;;;12.90;99.90;;;;;;5096273;28;20474;-64
2022/10/26 03:51:11;;;;;;;7.53;4.60;;;12.90;99.90;;;;;;5096164;28;20193;-64
2022/10/26 03:53:38;;;;;;;6.80;5.77;;;12.90;99.90;;;;;;5096277;28;20197;-64
2022/10/26 03:56:07;;;;;;;6.97;5.47;;;12.90;99.90;;;;;;5096002;28;20529;-67
2022/10/26 03:58:34;;;;;;;6.27;4.87;;;13.00;99.90;;;;;;5095999;28;20605;-64
2022/10/26 04:01:02;;;;;;;5.30;3.95;;;13.00;99.90;;;;;;5095752;28;20438;-64
2022/10/26 04:03:29;;;;;;;3.80;3.20;;;13.00;99.90;;;;;;5096249;28;20280;-64
2022/10/26 04:05:56;;;;;;;6.40;3.50;;;13.00;99.90;;;;;;5096026;28;20516;-64
2022/10/26 04:08:24;;;;;;;4.60;3.70;;;12.90;99.90;;;;;;5095946;28;20439;-65
2022/10/26 04:10:51;;;;;;;7.63;3.50;;;12.90;99.90;;;;;;5095851;28;20431;-64
2022/10/26 04:13:19;;;;;;;4.20;2.70;;;12.90;99.90;;;;;;5095719;28;20762;-65
2022/10/26 04:15:46;;;;;;;5.37;3.13;;;12.90;99.90;;;;;;5095567;28;20760;-64
2022/10/26 04:18:13;;;;;;;3.73;2.60;;;12.90;99.90;;;;;;5095770;28;20494;-64
2022/10/26 04:20:41;;;;;;;3.13;2.33;;;13.00;99.90;;;;;;5095800;28;20850;-65
2022/10/26 04:23:12;;;;;;;5.23;2.83;;;13.00;99.90;;;;;;5095828;28;20518;-64
2022/10/26 04:25:39;;;;;;;4.87;3.40;;;13.00;99.90;;;;;;5095676;28;20911;-65
2022/10/26 04:28:07;;;;;;;3.90;2.73;;;13.00;99.90;;;;;;5095519;28;20466;-64
2022/10/26 04:30:36;;;;;;;6.33;3.10;;;13.00;99.90;;;;;;5095529;28;20478;-64
2022/10/26 04:33:04;;;;;;;6.63;3.17;;;13.00;99.90;;;;;;5095584;28;20443;-64
2022/10/26 04:35:31;;;;;;;6.67;3.03;;;13.10;99.90;;;;;;5094077;28;20470;-64
2022/10/26 04:37:59;;;;;;;3.60;2.20;;;13.10;99.90;;;;;;5094895;28;20431;-64
2022/10/26 04:40:27;;;;;;;3.20;2.13;;;13.10;99.90;;;;;;5094793;28;20435;-64
2022/10/26 04:42:54;;;;;;;2.50;1.87;;;13.10;99.90;;;;;;5095114;28;20985;-66
2022/10/26 04:45:22;;;;;;;5.23;1.70;;;13.10;99.90;;;;;;5107787;28;20992;-64
2022/10/26 04:47:59;;;;;;;2.10;1.30;;;13.10;99.90;;;;;;5115405;28;20521;-64
2022/10/26 04:50:27;;;;;;;5.20;2.20;;;13.10;99.90;;;;;;5101784;28;20458;-65
2022/10/26 04:52:56;;;;;;;3.45;1.45;;;13.20;99.90;;;;;;5095319;28;20466;-64
2022/10/26 04:55:24;;;;;;;2.50;1.70;;;13.20;99.90;;;;;;5106980;28;20222;-64
2022/10/26 04:57:51;;;;;;;4.50;2.10;;;13.10;99.90;;;;;;5115493;28;20464;-64
2022/10/26 05:00:19;;;;;;;4.50;2.47;;;13.10;99.90;;;;;;5103935;28;20449;-65
2022/10/26 05:02:46;;;;;;;4.00;1.47;;;13.00;99.90;;;;;;5090116;28;20431;-68
2022/10/26 05:05:14;;;;;;;3.05;1.63;;;13.10;99.90;;;;;;5081555;28;20486;-65
2022/10/26 05:07:42;;;;;;;4.90;1.97;;;13.10;99.90;;;;;;5088603;28;20228;-65
2022/10/26 05:10:10;;;;;;;3.95;2.13;;;13.10;99.90;;;;;;5085834;28;20440;-65
2022/10/26 05:12:37;;;;;;;4.72;1.95;;;13.10;99.90;;;;;;5092459;28;20201;-65
2022/10/26 05:15:06;;;;;;;5.17;2.10;;;13.00;99.90;;;;;;5093187;28;20647;-64
2022/10/26 05:17:33;;;;;;;4.60;2.40;;;13.10;99.90;;;;;;5092355;28;20439;-65
2022/10/26 05:20:04;;;;;;;5.73;2.50;;;12.90;99.90;;;;;;5092758;28;20458;-64
2022/10/26 05:22:33;;;;;;;5.57;3.42;;;12.80;99.90;;;;;;5089855;28;20450;-65
2022/10/26 05:25:00;;;;;;;4.20;3.40;;;12.90;99.90;;;;;;5102897;28;20220;-65
2022/10/26 05:27:27;;;;;;;7.07;2.47;;;12.90;99.90;;;;;;5109758;28;20186;-65
2022/10/26 05:29:54;;;;;;;2.80;2.10;;;12.90;99.90;;;;;;5110922;28;20470;-64
2022/10/26 05:32:22;;;;;;;3.55;2.00;;;12.90;99.90;;;;;;5098107;28;20444;-64
2022/10/26 05:34:49;;;;;;;9.10;2.33;;;12.90;99.90;;;;;;5111895;28;20185;-64
2022/10/26 05:37:16;;;;;;;4.40;3.00;;;12.90;99.90;;;;;;5114500;28;20442;-65
2022/10/26 05:39:44;;;;;;;6.73;2.60;;;12.90;99.90;;;;;;5114844;28;20193;-66
2022/10/26 05:42:11;;;;;;;4.65;2.45;;;13.00;99.90;;;;;;5114800;28;20469;-64
2022/10/26 05:44:38;;;;;;;4.53;2.37;;;13.00;99.90;;;;;;5114754;28;20300;-64
2022/10/26 05:47:06;;;;;;;2.90;1.57;;;13.10;99.90;;;;;;5114814;28;20485;-64
2022/10/26 05:49:33;;;;;;;5.43;3.17;;;13.20;99.90;;;;;;5114785;28;20955;-65
2022/10/26 05:52:00;;;;;;;4.33;2.00;;;13.30;99.90;;;;;;5114739;28;20474;-64
2022/10/26 05:54:27;;;;;;;2.83;1.70;;;13.40;99.90;;;;;;5114365;28;20438;-64
2022/10/26 05:56:55;;;;;;;2.33;1.50;;;13.40;99.90;;;;;;5114276;28;20461;-64
2022/10/26 05:59:23;;;;;;;4.43;1.77;;;13.30;99.90;;;;;;5114466;27;20567;-64
2022/10/26 06:02:04;;;;;;;2.60;1.50;;;13.40;99.90;;;;;;5114026;28;20470;-64
2022/10/26 06:04:37;;;;;;;3.57;2.00;;;13.40;99.90;;;;;;5114579;28;20513;-65
2022/10/26 06:07:10;;;;;;;3.27;1.83;;;13.40;99.90;;;;;;5114588;28;20473;-65
2022/10/26 06:09:38;;;;;;;4.20;2.87;;;13.40;99.90;;;;;;5114133;28;20449;-64
2022/10/26 06:12:07;;;;;;;7.70;3.30;;;13.40;99.90;;;;;;5113935;28;20487;-64
2022/10/26 06:14:35;;;;;;;5.70;2.47;;;13.50;99.90;;;;;;5114466;28;20438;-64
2022/10/26 06:17:24;;;;;;;4.10;1.57;;;13.50;99.90;;;;;;5114146;28;20473;-65
2022/10/26 06:20:05;;;;;;;4.30;2.20;;;13.50;99.90;;;;;;5111667;28;20527;-64
2022/10/26 06:22:48;;;;;;;2.60;1.60;;;13.40;99.90;;;;;;5113782;28;20958;-65
2022/10/26 06:25:27;;;;;;;4.10;2.10;;;13.50;99.90;;;;;;5114073;28;20513;-64
2022/10/26 06:28:05;;;;;;;8.70;2.30;;;13.50;99.90;;;;;;5114232;28;20470;-64
2022/10/26 06:30:32;;;;;;;4.80;2.10;;;13.60;99.90;;;;;;5114095;28;20481;-65
2022/10/26 06:33:00;;;;;;;6.87;2.50;;;13.70;99.90;;;;;;5114040;28;20438;-64
2022/10/26 06:35:37;;;;;;;9.17;2.77;;;13.70;99.90;;;;;;5114083;28;20442;-64
2022/10/26 06:38:09;;;;;;;18.13;10.10;;;13.80;99.90;;;;;;5090350;28;20542;-65
2022/10/26 06:40:39;;;;;;;10.50;5.50;;;13.80;99.90;;;;;;5092916;28;20536;-66
2022/10/26 06:43:14;;;;;;;6.73;4.07;;;13.80;99.90;;;;;;5092947;28;20510;-65
2022/10/26 06:45:45;;;;;;;3.33;1.53;;;13.80;99.90;;;;;;5092683;28;20502;-64
2022/10/26 06:48:18;;;;;;;5.47;2.73;;;13.90;99.90;;;;;;5092364;28;20492;-64
2022/10/26 06:50:51;;;;;;;5.93;3.50;;;13.90;99.90;;;;;;5093055;28;20527;-64
2022/10/26 06:53:27;;;;;;;7.27;2.70;;;13.90;99.90;;;;;;5091769;28;20485;-65
2022/10/26 06:55:55;;;;;;;3.63;2.10;;;14.00;99.90;;;;;;5092902;28;20442;-65
2022/10/26 06:58:28;;;;;;;3.13;2.10;;;14.00;99.90;;;;;;5092968;28;20467;-64
2022/10/26 07:00:56;;;;;;;5.83;2.53;;;14.00;99.90;;;;;;5092943;28;20498;-65
2022/10/26 07:03:23;;;;;;;2.67;1.90;;;14.10;99.90;;;;;;5092665;28;20475;-64
2022/10/26 07:05:50;;;;;;;4.53;2.33;;;14.10;99.90;;;;;;5092749;28;20947;-65
2022/10/26 07:08:17;;;;;;;4.33;1.43;;;14.10;99.90;;;;;;5091670;28;20482;-64
2022/10/26 07:10:44;;;;;;;4.33;2.80;;;14.20;99.90;;;;;;5092334;28;20492;-64
2022/10/26 07:13:11;;;;;;;3.90;3.10;;;14.20;99.90;;;;;;5093086;28;20786;-64
2022/10/26 07:15:41;;;;;;;7.70;6.57;;;14.20;99.90;;;;;;5096702;28;20474;-65
2022/10/26 07:18:09;;;;;;;6.07;2.53;;;14.20;99.90;;;;;;5096377;28;20482;-64
2022/10/26 07:20:37;;;;;;;3.63;2.70;;;14.20;99.90;;;;;;5097292;28;20523;-66
2022/10/26 07:23:06;;;;;;;5.50;3.10;;;14.20;99.90;;;;;;5096801;28;20439;-65
2022/10/26 07:25:37;;;;;;;3.80;2.87;;;14.20;99.90;;;;;;5097074;28;20505;-65
2022/10/26 07:28:05;;;;;;;7.50;2.23;;;14.30;99.90;;;;;;5097057;28;20441;-64
2022/10/26 07:30:32;;;;;;;4.40;2.10;;;14.40;99.90;;;;;;5097141;28;20505;-65
2022/10/26 07:33:01;;;;;;;6.10;2.93;;;14.40;99.90;;;;;;5096286;28;20525;-65
2022/10/26 07:35:28;;;;;;;5.53;3.10;;;14.50;99.90;;;;;;5095625;28;20522;-65
2022/10/26 07:38:03;;;;;;;5.43;2.80;;;14.50;99.90;;;;;;5095166;28;20443;-65
2022/10/26 07:40:31;;;;;;;6.07;2.50;;;14.60;99.90;;;;;;5096010;28;20787;-64
2022/10/26 07:42:59;;;;;;;4.53;3.30;;;14.60;99.90;;;;;;5096028;28;20470;-64
2022/10/26 07:45:27;;;;;;;6.50;3.63;;;14.70;99.90;;;;;;5096840;28;20562;-65
2022/10/26 07:47:54;;;;;;;9.50;6.07;;;14.80;99.90;;;;;;5104008;28;20435;-64
2022/10/26 07:50:23;;;;;;;9.87;6.80;;;14.90;99.90;;;;;;5107534;28;20444;-65
2022/10/26 07:52:51;;;;;;;9.33;6.73;;;15.10;99.90;;;;;;5112780;27;20507;-65
2022/10/26 07:55:18;;;;;;;5.97;3.83;;;15.30;99.90;;;;;;5095544;28;20841;-64
2022/10/26 07:57:45;;;;;;;6.57;4.30;;;15.50;99.90;;;;;;5096155;28;20448;-65
2022/10/26 08:00:13;;;;;;;7.07;5.97;;;15.70;99.90;;;;;;5096024;28;20447;-65
2022/10/26 08:02:40;;;;;;;8.60;5.87;;;15.80;99.70;;;;;;5096443;28;20468;-65
2022/10/26 08:05:08;;;;;;;8.87;6.60;;;15.80;99.40;;;;;;5099383;28;20480;-65
2022/10/26 08:07:41;;;;;;;6.57;5.30;;;15.70;99.30;;;;;;5106620;28;20958;-65
2022/10/26 08:10:09;;;;;;;6.67;4.63;;;15.70;99.20;;;;;;5106566;28;20440;-65
2022/10/26 08:12:36;;;;;;;9.13;4.23;;;15.80;99.30;;;;;;5109574;28;20483;-65
2022/10/26 08:15:03;;;;;;;5.83;3.20;;;15.90;99.30;;;;;;5103006;28;20503;-65
2022/10/26 08:17:30;;;;;;;7.20;3.13;;;16.00;99.40;;;;;;5095041;28;20437;-65
2022/10/26 08:19:57;;;;;;;4.07;2.83;;;16.20;99.30;;;;;;5094711;28;20520;-64
2022/10/26 08:22:24;;;;;;;5.10;2.70;;;16.50;99.00;;;;;;5095271;28;20474;-65
2022/10/26 08:24:53;;;;;;;8.43;5.40;;;16.70;98.80;;;;;;5094399;28;20501;-65
2022/10/26 08:27:20;;;;;;;7.23;4.10;;;16.90;98.60;;;;;;5096266;28;20527;-65
2022/10/26 08:29:47;;;;;;;6.00;3.03;;;17.00;98.10;;;;;;5098308;28;20856;-65
2022/10/26 08:32:14;;;;;;;4.67;2.60;;;17.10;97.90;;;;;;5094736;28;20882;-64
2022/10/26 08:34:40;;;;;;;9.10;2.23;;;17.20;97.50;;;;;;5098392;28;20786;-64
2022/10/26 08:37:08;;;;;;;4.87;2.07;;;17.30;97.40;;;;;;5100556;28;20503;-65
2022/10/26 08:39:34;;;;;;;3.50;1.90;;;17.40;97.20;;;;;;5098444;28;20458;-65
2022/10/26 08:42:12;;;;;;;5.53;2.00;;;17.60;96.70;;;;;;5097454;28;21782;-65
2022/10/26 08:44:44;;;;;;;3.00;1.83;;;17.90;97.10;;;;;;5098383;28;20486;-64
2022/10/26 08:47:16;;;;;;;2.53;1.33;;;18.30;96.40;;;;;;5098472;28;20929;-64
2022/10/26 08:49:50;;;;;;;2.27;1.17;;;18.60;95.70;;;;;;5098599;28;20948;-64
2022/10/26 08:52:22;;;;;;;4.83;1.63;;;18.90;94.80;;;;;;5097229;28;20462;-64
2022/10/26 08:54:53;;;;;;;2.90;1.67;;;19.10;93.90;;;;;;5100237;28;20443;-64
2022/10/26 08:57:26;;;;;;;3.57;1.47;;;19.10;92.70;;;;;;5096818;28;20469;-64
2022/10/26 08:59:58;;;;;;;3.27;1.87;;;19.00;91.20;;;;;;5098779;28;20519;-64
2022/10/26 09:02:25;;;;;;;2.73;1.90;;;18.70;90.40;;;;;;5100615;28;20435;-64
2022/10/26 09:04:53;;;;;;;6.80;2.67;;;18.60;90.80;;;;;;5100322;28;20520;-64
2022/10/26 09:07:37;;;;;;;3.50;2.20;;;18.30;91.30;;;;;;5099166;28;20443;-64
2022/10/26 09:10:15;;;;;;;3.47;2.30;;;18.00;92.00;;;;;;5102272;28;20438;-64
2022/10/26 09:12:49;;;;;;;7.40;3.27;;;17.80;92.80;;;;;;5098215;28;20562;-64
2022/10/26 09:15:27;;;;;;;3.40;3.10;;;17.60;93.40;;;;;;5101402;28;20478;-64
2022/10/26 09:18:04;;;;;;;4.37;2.30;;;17.60;93.90;;;;;;5098840;28;20431;-64
2022/10/26 09:20:47;;;;;;;6.20;1.80;;;17.60;94.70;;;;;;5104190;28;20477;-65
2022/10/26 09:23:29;;;;;;;5.80;1.50;;;17.60;95.30;;;;;;5103274;28;20522;-64
2022/10/26 09:25:59;;;;;;;3.97;1.93;;;17.60;95.40;;;;;;5103387;28;20576;-64
2022/10/26 09:28:32;;;;;;;6.63;1.60;;;17.60;95.50;;;;;;5101635;28;20471;-64
2022/10/26 09:31:01;;;;;;;5.03;2.27;;;17.60;95.50;;;;;;5104480;28;20474;-64
2022/10/26 09:33:30;;;;;;;4.30;2.67;;;17.60;95.60;;;;;;5102622;28;20528;-64
2022/10/26 09:36:01;;;;;;;8.43;2.27;;;17.50;95.30;;;;;;5103901;28;20501;-64
2022/10/26 09:38:30;;;;;;;7.87;3.87;;;17.50;95.80;;;;;;5100168;28;20470;-64
2022/10/26 09:41:02;;;;;;;6.97;2.40;;;17.70;96.20;;;;;;5105190;28;20482;-64
2022/10/26 09:43:38;;;;;;;4.67;2.00;;;18.10;96.20;;;;;;5105608;28;20431;-64
2022/10/26 09:46:06;;;;;;;4.17;2.70;;;18.70;96.50;;;;;;5106718;28;20797;-65
2022/10/26 09:48:36;;;;;;;4.40;1.80;;;19.90;95.80;;;;;;5101691;28;21066;-66
2022/10/26 09:51:03;;;;;;;3.53;1.57;;;21.40;91.00;;;;;;5107484;28;20937;-67
2022/10/26 09:53:31;;;;;;;5.67;2.60;;;22.10;84.60;;;;;;5106614;28;20442;-67
2022/10/26 09:56:05;;;;;;;8.33;1.80;;;22.00;83.30;;;;;;5107549;28;20446;-66
2022/10/26 09:58:37;;;;;;;4.90;2.10;;;21.80;81.70;;;;;;5104938;28;20439;-65
2022/10/26 10:01:04;;;;;;;4.27;3.27;;;21.60;81.30;;;;;;5107872;28;20446;-66
2022/10/26 10:03:33;;;;;;;3.73;2.33;;;21.50;80.60;;;;;;5107355;28;20471;-66
2022/10/26 10:06:18;;;;;;;4.20;3.07;;;21.90;82.00;;;;;;5108217;28;20522;-65
2022/10/26 10:09:05;;;;;;;8.33;3.93;;;22.30;75.50;;;;;;5098115;28;20435;-66
2022/10/26 10:11:39;;;;;;;4.40;2.80;;;22.30;72.20;;;;;;5108266;28;20465;-65
2022/10/26 10:14:13;;;;;;;6.83;2.67;;;22.20;72.10;;;;;;5108989;28;20438;-66
2022/10/26 10:16:42;;;;;;;3.80;1.80;;;22.10;71.70;;;;;;5102901;28;20438;-65
2022/10/26 10:19:23;;;;;;;4.20;1.80;;;21.90;71.20;;;;;;5102676;28;20543;-66
2022/10/26 10:21:52;;;;;;;6.80;1.80;;;21.90;72.90;;;;;;5107057;28;20487;-65
2022/10/26 10:24:25;;;;;;;3.07;1.73;;;21.90;73.00;;;;;;5107121;28;20957;-65
2022/10/26 10:27:00;;;;;;;4.50;2.70;;;22.10;74.00;;;;;;5108120;28;20482;-65
2022/10/26 10:29:31;;;;;;;4.63;2.07;;;22.40;70.90;;;;;;5106707;28;20487;-66
2022/10/26 10:32:00;;;;;;;5.17;1.40;;;22.60;72.40;;;;;;5106231;28;20475;-66
2022/10/26 10:34:29;;;;;;;5.17;2.03;;;23.60;70.30;;;;;;5110367;28;20792;-66
2022/10/26 10:36:58;;;;;;;2.63;1.40;;;24.10;67.10;;;;;;5110350;28;20442;-66
2022/10/26 10:39:41;;;;;;;4.00;1.60;;;25.00;67.40;;;;;;5103636;28;20933;-67
2022/10/26 10:42:17;;;;;;;2.53;1.13;;;26.20;63.30;;;;;;5111328;28;20474;-66
2022/10/26 10:44:47;;;;;;;5.23;1.60;;;27.40;55.40;;;;;;5104712;28;20525;-66
2022/10/26 10:47:22;;;;;;;4.43;1.50;;;27.40;56.00;;;;;;5102493;28;20516;-66
2022/10/26 10:49:55;;;;;;;5.33;1.83;;;27.90;58.20;;;;;;5101275;28;20477;-66
2022/10/26 10:52:26;;;;;;;4.53;1.67;;;28.60;50.70;;;;;;5109062;28;20442;-66
2022/10/26 10:55:20;;;;;;;11.30;2.77;;;28.10;47.30;;;;;;5104799;28;20754;-66
2022/10/26 10:58:15;;;;;;;5.47;1.83;;;27.40;47.30;;;;;;5081377;28;20431;-66
2022/10/26 11:00:48;;;;;;;7.93;2.60;;;26.80;48.00;;;;;;5099435;28;20885;-66
2022/10/26 11:03:38;;;;;;;6.97;1.57;;;26.40;48.50;;;;;;5103413;28;20472;-65
2022/10/26 11:06:11;;;;;;;3.97;1.70;;;26.20;49.30;;;;;;5094392;28;20515;-65
2022/10/26 11:08:44;;;;;;;4.37;2.23;;;26.70;51.00;;;;;;5092581;28;20470;-66
2022/10/26 11:11:15;;;;;;;4.80;1.40;;;28.90;50.10;;;;;;5090982;28;20438;-66
2022/10/26 11:13:52;;;;;;;3.33;1.43;;;30.80;45.40;;;;;;5094823;28;20477;-66
2022/10/26 11:16:24;;;;;;;5.30;1.70;;;33.80;43.70;;;;;;5097032;28;20512;-66
2022/10/26 11:18:57;;;;;;;4.13;1.57;;;37.00;34.30;;;;;;5099843;28;20525;-66
2022/10/26 11:21:28;;;;;;;6.40;1.50;;;37.50;30.50;;;;;;5101059;28;20458;-67
2022/10/26 11:24:09;;;;;;;5.27;1.87;;;37.60;30.00;;;;;;5102444;28;20527;-67
2022/10/26 11:26:42;;;;;;;6.10;1.70;;;38.40;27.60;;;;;;5103752;28;20457;-67
2022/10/26 11:29:20;;;;;;;2.77;1.33;;;38.70;25.70;;;;;;5101489;28;21009;-67
2022/10/26 11:31:53;;;;;;;4.73;1.80;;;38.40;24.70;;;;;;5101351;28;20517;-66
2022/10/26 11:34:29;;;;;;;3.50;1.50;;;37.00;24.80;;;;;;5100207;28;20453;-66
2022/10/26 11:37:03;;;;;;;8.10;1.97;;;35.50;25.90;;;;;;5103001;28;20484;-66
2022/10/26 11:39:38;;;;;;;4.93;1.53;;;34.20;27.30;;;;;;5098684;28;20925;-66
2022/10/26 11:42:15;;;;;;;4.30;1.90;;;33.00;27.90;;;;;;5102756;28;21019;-66
2022/10/26 11:44:47;;;;;;;6.43;2.50;;;31.90;29.40;;;;;;5100978;28;20469;-66
2022/10/26 11:47:19;;;;;;;3.93;1.70;;;30.90;30.60;;;;;;5100471;28;20479;-66
2022/10/26 11:49:52;;;;;;;4.77;1.63;;;30.10;32.70;;;;;;5101113;28;20826;-66
2022/10/26 11:52:22;;;;;;;9.03;2.07;;;29.50;34.50;;;;;;5100578;28;20510;-66
2022/10/26 11:54:53;;;;;;;3.30;1.63;;;29.00;35.20;;;;;;5102723;28;20431;-66
2022/10/26 11:57:22;;;;;;;5.77;2.00;;;28.40;36.40;;;;;;5103218;28;20556;-66
2022/10/26 11:59:53;;;;;;;4.77;1.40;;;27.80;37.30;;;;;;5099928;28;20463;-66
2022/10/26 12:02:23;;;;;;;8.60;1.83;;;27.20;37.90;;;;;;5104670;28;20500;-65
2022/10/26 12:04:55;;;;;;;4.90;2.40;;;26.80;39.50;;;;;;5107318;28;20438;-66
2022/10/26 12:07:30;;;;;;;4.87;1.73;;;26.30;40.20;;;;;;5106658;28;20441;-65
2022/10/26 12:09:58;;;;;;;12.07;1.97;;;26.00;41.30;;;;;;5095527;28;20503;-65
2022/10/26 12:12:35;;;;;;;5.00;2.37;;;25.80;42.20;;;;;;5097094;28;20518;-65
2022/10/26 12:15:14;;;;;;;4.20;1.70;;;25.60;43.00;;;;;;5113653;28;20466;-67
2022/10/26 12:17:48;;;;;;;4.93;1.70;;;25.40;43.20;;;;;;5114629;28;20477;-65
2022/10/26 12:20:47;;;;;;;6.57;1.80;;;25.20;44.20;;;;;;5116433;28;20465;-65
2022/10/26 12:23:14;;;;;;;4.93;1.53;;;25.20;45.00;;;;;;5077028;28;20826;-65
2022/10/26 12:25:41;;;;;;;6.23;2.27;;;25.20;45.70;;;;;;5095789;28;20548;-65
2022/10/26 12:28:45;;;;;;;6.17;2.17;;;25.20;46.60;;;;;;5095698;28;20501;-65
2022/10/26 12:31:43;;;;;;;5.10;1.77;;;25.40;47.10;;;;;;5095508;28;20435;-65
2022/10/26 12:34:14;;;;;;;5.07;1.90;;;26.20;47.70;;;;;;5092643;28;20443;-66
2022/10/26 12:36:48;;;;;;;4.63;1.67;;;26.80;45.90;;;;;;5095346;28;20566;-65
2022/10/26 12:39:29;;;;;;;7.87;2.07;;;26.80;45.50;;;;;;5095532;28;20885;-65
2022/10/26 12:42:10;;;;;;;4.63;1.77;;;26.50;44.30;;;;;;5095490;28;20443;-65
2022/10/26 12:44:40;;;;;;;4.57;1.53;;;26.30;44.40;;;;;;5095667;28;20441;-66
2022/10/26 12:47:07;;;;;;;4.23;1.20;;;26.00;45.10;;;;;;5095399;28;20522;-66
2022/10/26 12:50:00;;;;;;;5.40;2.47;;;25.90;45.40;;;;;;5095761;28;20497;-66
2022/10/26 12:52:50;;;;;;;5.50;2.03;;;25.80;46.20;;;;;;5095577;28;20475;-66
2022/10/26 12:55:46;;;;;;;5.23;3.23;;;25.70;45.50;;;;;;5095101;28;20435;-65
2022/10/26 12:58:38;;;;;;;6.10;2.60;;;26.00;47.00;;;;;;5095386;28;20528;-65
2022/10/26 13:01:44;;;;;;;7.27;2.43;;;26.50;45.90;;;;;;5089207;28;20439;-66
2022/10/26 13:04:43;;;;;;;15.23;3.30;;;26.60;43.00;;;;;;5080127;28;20948;-66
2022/10/26 13:07:23;;;;;;;8.33;1.87;;;26.40;42.30;;;;;;5095246;28;20894;-65
2022/10/26 13:10:01;;;;;;;7.90;2.10;;;26.00;41.00;;;;;;5095191;28;20473;-65